createdAt,value
2019-03-21T00:02:11.185Z,14.70
2019-03-21T00:04:47.026Z,12.80
2019-03-21T00:07:21.082Z,14.50
2019-03-21T00:10:17.461Z,10.87
2019-03-21T00:12:51.572Z,10.13
2019-03-21T00:15:31.002Z,11.18
2019-03-21T00:18:07.621Z,12.90
2019-03-21T00:20:43.083Z,11.70
2019-03-21T00:23:17.011Z,13.70
2019-03-21T00:25:50.974Z,13.80
2019-03-21T00:28:24.757Z,13.63
2019-03-21T00:30:58.599Z,14.13
2019-03-21T00:33:32.621Z,12.97
2019-03-21T00:36:07.498Z,7.83
2019-03-21T00:38:41.380Z,8.67
2019-03-21T00:41:15.075Z,14.50
2019-03-21T00:43:49.433Z,14.80
2019-03-21T00:46:23.422Z,15.17
2019-03-21T00:48:57.349Z,14.07
2019-03-21T00:51:31.083Z,13.40
2019-03-21T00:54:05.188Z,15.47
2019-03-21T00:56:41.848Z,13.23
2019-03-21T00:59:15.607Z,12.10
2019-03-21T01:01:49.823Z,14.10
2019-03-21T01:04:24.976Z,13.47
2019-03-21T01:07:00.255Z,12.13
2019-03-21T01:09:34.590Z,14.80
2019-03-21T01:12:08.835Z,14.58
2019-03-21T01:14:44.164Z,13.83
2019-03-21T01:17:18.718Z,13.53
2019-03-21T01:19:56.199Z,13.20
2019-03-21T01:22:32.093Z,7.90
2019-03-21T01:25:07.235Z,15.33
2019-03-21T01:27:40.650Z,16.67
2019-03-21T01:30:17.035Z,13.27
2019-03-21T01:32:51.102Z,14.87
2019-03-21T01:35:26.652Z,13.03
2019-03-21T01:38:00.762Z,13.13
2019-03-21T01:40:49.031Z,14.47
2019-03-21T01:43:23.315Z,13.27
2019-03-21T01:45:58.606Z,13.30
2019-03-21T01:48:34.686Z,12.37
2019-03-21T01:51:09.349Z,10.77
2019-03-21T01:53:43.647Z,14.03
2019-03-21T01:56:17.511Z,13.55
2019-03-21T01:58:54.322Z,10.53
2019-03-21T02:01:28.537Z,11.60
2019-03-21T02:04:02.716Z,13.32
2019-03-21T02:06:37.620Z,10.97
2019-03-21T02:09:12.164Z,11.77
2019-03-21T02:11:47.662Z,7.20
2019-03-21T02:14:21.595Z,9.37
2019-03-21T02:16:55.367Z,7.73
2019-03-21T02:19:29.358Z,12.03
2019-03-21T02:22:03.503Z,11.07
2019-03-21T02:24:39.166Z,11.57
2019-03-21T02:27:14.060Z,11.53
2019-03-21T02:29:49.111Z,10.80
2019-03-21T02:32:22.923Z,11.73
2019-03-21T02:34:56.876Z,9.90
2019-03-21T02:37:35.542Z,10.28
2019-03-21T02:40:09.199Z,10.47
2019-03-21T02:42:45.325Z,9.70
2019-03-21T02:45:19.932Z,8.53
2019-03-21T02:47:54.034Z,8.13
2019-03-21T02:50:39.364Z,9.67
2019-03-21T02:53:13.531Z,9.10
2019-03-21T02:55:48.241Z,8.73
2019-03-21T02:58:21.611Z,9.60
2019-03-21T03:00:55.410Z,10.10
2019-03-21T03:03:29.447Z,10.10
2019-03-21T03:06:05.309Z,10.13
2019-03-21T03:08:39.333Z,10.03
2019-03-21T03:11:15.644Z,9.80
2019-03-21T03:13:51.522Z,11.70
2019-03-21T03:16:26.185Z,11.67
2019-03-21T03:19:01.765Z,8.97
2019-03-21T03:21:36.027Z,8.75
2019-03-21T03:24:09.895Z,7.62
2019-03-21T03:26:45.582Z,10.23
2019-03-21T03:29:20.778Z,7.23
2019-03-21T03:31:56.245Z,11.17
2019-03-21T03:34:30.340Z,11.00
2019-03-21T03:37:04.160Z,11.23
2019-03-21T03:39:38.117Z,10.53
2019-03-21T03:42:12.538Z,9.43
2019-03-21T03:44:46.458Z,10.10
2019-03-21T03:47:20.269Z,9.47
2019-03-21T03:49:54.240Z,10.00
2019-03-21T03:52:28.765Z,8.60
2019-03-21T03:55:02.748Z,9.13
2019-03-21T03:57:36.773Z,8.67
2019-03-21T04:00:13.472Z,10.17
2019-03-21T04:02:47.637Z,9.57
2019-03-21T04:05:23.104Z,10.00
2019-03-21T04:07:59.004Z,9.80
2019-03-21T04:10:41.326Z,8.83
2019-03-21T04:13:15.165Z,9.33
2019-03-21T04:15:53.051Z,9.77
2019-03-21T04:18:26.090Z,8.93
2019-03-21T04:21:22.002Z,6.87
2019-03-21T04:23:59.533Z,9.43
2019-03-21T04:26:33.998Z,10.30
2019-03-21T04:29:08.197Z,10.00
2019-03-21T04:31:42.411Z,9.50
2019-03-21T04:34:17.696Z,9.10
2019-03-21T04:36:51.747Z,8.90
2019-03-21T04:39:25.550Z,9.53
2019-03-21T04:41:59.378Z,9.23
2019-03-21T04:44:34.530Z,8.00
2019-03-21T04:47:08.488Z,8.55
2019-03-21T04:49:43.908Z,7.97
2019-03-21T04:52:39.335Z,7.62
2019-03-21T04:55:17.657Z,8.07
2019-03-21T04:57:51.512Z,6.83
2019-03-21T05:00:46.203Z,8.23
2019-03-21T05:03:22.230Z,7.40
2019-03-21T05:06:17.066Z,8.27
2019-03-21T05:08:51.734Z,8.13
2019-03-21T05:11:26.604Z,8.10
2019-03-21T05:14:03.605Z,7.70
2019-03-21T05:16:38.474Z,6.92
2019-03-21T05:19:14.425Z,6.93
2019-03-21T05:21:51.120Z,7.20
2019-03-21T05:24:45.027Z,6.47
2019-03-21T05:27:22.551Z,7.50
2019-03-21T05:29:56.751Z,7.20
2019-03-21T05:32:32.369Z,7.85
2019-03-21T05:35:07.866Z,6.75
2019-03-21T05:37:41.504Z,7.58
2019-03-21T05:40:21.661Z,6.87
2019-03-21T05:43:07.020Z,7.73
2019-03-21T05:45:41.075Z,7.10
2019-03-21T05:48:15.308Z,5.77
2019-03-21T05:50:49.350Z,6.70
2019-03-21T05:53:42.370Z,7.73
2019-03-21T05:56:16.317Z,7.07
2019-03-21T05:59:09.380Z,6.50
2019-03-21T06:01:42.976Z,6.67
2019-03-21T06:04:16.913Z,7.23
2019-03-21T06:07:09.988Z,6.03
2019-03-21T06:09:43.737Z,6.97
2019-03-21T06:12:19.436Z,8.87
2019-03-21T06:15:02.032Z,7.92
2019-03-21T06:17:35.964Z,7.43
2019-03-21T06:21:03.975Z,7.40
2019-03-21T06:24:09.963Z,7.23
2019-03-21T06:27:14.802Z,7.87
2019-03-21T06:29:49.009Z,7.00
2019-03-21T06:32:23.030Z,7.15
2019-03-21T06:34:56.978Z,8.07
2019-03-21T06:37:30.712Z,8.07
2019-03-21T06:40:06.022Z,8.25
2019-03-21T06:42:39.932Z,8.40
2019-03-21T06:45:16.696Z,8.60
2019-03-21T06:47:52.885Z,9.23
2019-03-21T06:50:24.824Z,8.87
2019-03-21T06:53:03.377Z,9.40
2019-03-21T06:55:38.569Z,9.25
2019-03-21T06:58:12.386Z,9.30
2019-03-21T07:01:05.454Z,8.47
2019-03-21T07:03:43.134Z,10.35
2019-03-21T07:06:18.536Z,10.37
2019-03-21T07:08:52.619Z,9.57
2019-03-21T07:11:26.853Z,10.60
2019-03-21T07:14:00.729Z,11.03
2019-03-21T07:16:36.100Z,10.63
2019-03-21T07:19:10.378Z,10.77
2019-03-21T07:21:44.704Z,11.50
2019-03-21T07:24:19.682Z,11.90
2019-03-21T07:26:55.478Z,12.00
2019-03-21T07:29:29.887Z,12.63
2019-03-21T07:32:04.170Z,12.58
2019-03-21T07:34:38.566Z,11.53
2019-03-21T07:37:14.346Z,13.93
2019-03-21T07:39:48.639Z,14.00
2019-03-21T07:42:23.068Z,13.80
2019-03-21T07:44:57.976Z,13.93
2019-03-21T07:47:32.310Z,13.57
2019-03-21T07:50:09.682Z,14.53
2019-03-21T07:52:44.438Z,15.67
2019-03-21T07:55:19.108Z,14.50
2019-03-21T07:57:54.639Z,15.50
2019-03-21T08:00:30.929Z,14.95
2019-03-21T08:03:05.880Z,16.65
2019-03-21T08:05:40.955Z,15.27
2019-03-21T08:08:15.866Z,16.43
2019-03-21T08:10:52.528Z,13.72
2019-03-21T08:13:31.962Z,17.37
2019-03-21T08:16:26.489Z,17.70
2019-03-21T08:19:01.681Z,15.53
2019-03-21T08:21:36.188Z,18.30
2019-03-21T08:24:12.883Z,19.82
2019-03-21T08:26:47.901Z,19.63
2019-03-21T08:29:23.870Z,19.70
2019-03-21T08:32:01.109Z,19.57
2019-03-21T08:34:35.252Z,19.92
2019-03-21T08:37:08.898Z,21.23
2019-03-21T08:39:42.883Z,21.57
2019-03-21T08:42:16.943Z,21.77
2019-03-21T08:44:52.013Z,23.10
2019-03-21T08:47:28.907Z,23.30
2019-03-21T08:50:02.563Z,19.47
2019-03-21T08:52:36.447Z,23.93
2019-03-21T08:55:11.023Z,24.30
2019-03-21T08:57:44.972Z,20.60
2019-03-21T09:00:19.206Z,26.70
2019-03-21T09:02:52.781Z,26.33
2019-03-21T09:05:27.584Z,19.10
2019-03-21T09:08:03.395Z,25.17
2019-03-21T09:10:37.008Z,24.75
2019-03-21T09:13:12.473Z,24.97
2019-03-21T09:15:46.703Z,24.70
2019-03-21T09:18:21.805Z,25.80
2019-03-21T09:20:57.084Z,24.50
2019-03-21T09:23:31.187Z,21.33
2019-03-21T09:26:05.765Z,23.53
2019-03-21T09:28:40.176Z,26.20
2019-03-21T09:31:14.109Z,25.13
2019-03-21T09:33:48.849Z,25.17
2019-03-21T09:36:22.997Z,24.63
2019-03-21T09:38:58.797Z,23.73
2019-03-21T09:41:33.479Z,25.00
2019-03-21T09:44:08.198Z,24.12
2019-03-21T09:46:50.781Z,24.77
2019-03-21T09:49:18.475Z,25.20
2019-03-21T09:51:53.491Z,25.80
2019-03-21T09:54:28.551Z,25.30
2019-03-21T09:57:03.451Z,26.68
2019-03-21T09:59:41.160Z,27.20
2019-03-21T10:02:23.801Z,28.30
2019-03-21T10:04:58.398Z,27.43
2019-03-21T10:07:32.613Z,28.73
2019-03-21T10:10:08.242Z,31.13
2019-03-21T10:12:42.718Z,31.00
2019-03-21T10:15:17.616Z,31.40
2019-03-21T10:17:52.679Z,33.07
2019-03-21T10:20:29.019Z,31.63
2019-03-21T10:23:04.358Z,32.95
2019-03-21T10:25:40.865Z,32.40
2019-03-21T10:28:18.034Z,32.45
2019-03-21T10:30:57.197Z,33.40
2019-03-21T10:33:31.632Z,33.10
2019-03-21T10:36:06.386Z,34.00
2019-03-21T10:38:41.495Z,34.80
2019-03-21T10:41:19.996Z,33.90
2019-03-21T10:44:00.914Z,34.80
2019-03-21T10:46:36.957Z,35.63
2019-03-21T10:49:12.159Z,35.80
2019-03-21T10:51:54.570Z,34.17
2019-03-21T10:54:32.436Z,34.97
2019-03-21T10:57:07.294Z,36.30
2019-03-21T10:59:42.785Z,35.73
2019-03-21T11:02:18.634Z,35.23
2019-03-21T11:04:53.379Z,35.40
2019-03-21T11:07:28.162Z,34.90
2019-03-21T11:10:08.127Z,35.70
2019-03-21T11:12:43.368Z,35.33
2019-03-21T11:15:24.274Z,35.70
2019-03-21T11:18:01.024Z,36.13
2019-03-21T11:20:43.263Z,35.30
2019-03-21T11:23:23.724Z,36.33
2019-03-21T11:26:01.990Z,37.03
2019-03-21T11:28:39.389Z,37.07
2019-03-21T11:31:23.267Z,38.50
2019-03-21T11:34:00.106Z,37.95
2019-03-21T11:36:38.717Z,37.13
2019-03-21T11:39:14.312Z,38.33
2019-03-21T11:41:50.439Z,36.87
2019-03-21T11:44:26.517Z,36.00
2019-03-21T11:47:01.677Z,33.63
2019-03-21T11:49:39.751Z,32.17
2019-03-21T11:52:18.455Z,32.03
2019-03-21T11:54:52.130Z,32.10
2019-03-21T11:57:27.813Z,33.30
2019-03-21T12:00:04.149Z,32.07
2019-03-21T12:02:39.250Z,33.50
2019-03-21T12:05:17.578Z,33.80
2019-03-21T12:07:53.111Z,31.40
2019-03-21T12:10:28.344Z,32.10
2019-03-21T12:13:03.288Z,29.97
2019-03-21T12:15:39.647Z,28.97
2019-03-21T12:18:15.524Z,30.50
2019-03-21T12:20:50.519Z,26.70
2019-03-21T12:23:27.108Z,26.97
2019-03-21T12:26:02.339Z,24.82
2019-03-21T12:28:36.609Z,24.43
2019-03-21T12:31:10.474Z,23.83
2019-03-21T12:33:47.670Z,24.00
2019-03-21T12:36:23.510Z,23.30
2019-03-21T12:38:59.116Z,23.70
2019-03-21T12:41:33.287Z,24.10
2019-03-21T12:44:10.547Z,24.35
2019-03-21T12:46:45.412Z,23.57
2019-03-21T12:49:30.279Z,25.97
2019-03-21T12:52:07.023Z,26.04
2019-03-21T12:54:41.925Z,26.20
2019-03-21T12:57:16.964Z,26.90
2019-03-21T12:59:52.170Z,26.87
2019-03-21T13:02:32.386Z,25.13
2019-03-21T13:05:06.111Z,24.70
2019-03-21T13:07:41.047Z,25.43
2019-03-21T13:10:35.109Z,24.10
2019-03-21T13:13:09.631Z,23.20
2019-03-21T13:16:02.681Z,23.60
2019-03-21T13:18:38.032Z,24.57
2019-03-21T13:21:26.845Z,25.12
2019-03-21T13:24:08.163Z,24.43
2019-03-21T13:26:47.914Z,24.13
2019-03-21T13:29:29.051Z,25.00
2019-03-21T13:32:17.307Z,23.00
2019-03-21T13:34:55.349Z,23.93
2019-03-21T13:37:37.062Z,25.63
2019-03-21T13:40:12.121Z,23.63
2019-03-21T13:42:48.288Z,25.17
2019-03-21T13:45:22.558Z,25.97
2019-03-21T13:47:58.422Z,25.63
2019-03-21T13:50:35.646Z,26.73
2019-03-21T13:53:18.725Z,27.57
2019-03-21T13:55:47.503Z,26.80
2019-03-21T13:58:22.375Z,28.13
2019-03-21T14:00:56.625Z,30.80
2019-03-21T14:03:30.683Z,30.30
2019-03-21T14:06:05.167Z,28.15
2019-03-21T14:08:39.337Z,28.67
2019-03-21T14:11:13.433Z,28.27
2019-03-21T14:13:47.756Z,32.43
2019-03-21T14:16:22.114Z,31.40
2019-03-21T14:18:56.376Z,31.00
2019-03-21T14:21:30.570Z,30.50
2019-03-21T14:24:04.265Z,32.30
2019-03-21T14:26:37.981Z,31.23
2019-03-21T14:29:12.825Z,30.57
2019-03-21T14:31:46.936Z,30.90
2019-03-21T14:34:22.227Z,31.93
2019-03-21T14:36:55.722Z,31.80
2019-03-21T14:39:31.053Z,31.67
2019-03-21T14:42:06.387Z,31.73
2019-03-21T14:44:42.031Z,30.13
2019-03-21T14:47:15.765Z,29.60
2019-03-21T14:49:49.525Z,27.80
2019-03-21T14:52:23.618Z,28.10
2019-03-21T14:54:58.799Z,28.65
2019-03-21T14:57:33.865Z,28.33
2019-03-21T15:00:12.698Z,27.87
2019-03-21T15:02:46.440Z,25.90
2019-03-21T15:05:20.377Z,26.13
2019-03-21T15:07:55.571Z,25.73
2019-03-21T15:10:31.822Z,24.43
2019-03-21T15:13:05.705Z,24.37
2019-03-21T15:15:40.764Z,25.27
2019-03-21T15:18:14.542Z,24.57
2019-03-21T15:20:48.151Z,24.30
2019-03-21T15:23:21.856Z,24.47
2019-03-21T15:25:57.439Z,23.95
2019-03-21T15:28:32.490Z,23.03
2019-03-21T15:31:06.173Z,23.90
2019-03-21T15:33:42.232Z,24.83
2019-03-21T15:36:16.022Z,25.43
2019-03-21T15:38:49.979Z,25.87
2019-03-21T15:41:23.877Z,25.20
2019-03-21T15:43:57.833Z,25.55
2019-03-21T15:46:31.841Z,24.50
2019-03-21T15:49:05.644Z,25.37
2019-03-21T15:51:39.515Z,24.40
2019-03-21T15:54:13.260Z,25.90
2019-03-21T15:56:46.284Z,26.27
2019-03-21T15:59:19.367Z,24.37
2019-03-21T16:01:52.235Z,25.43
2019-03-21T16:04:26.297Z,24.57
2019-03-21T16:06:59.614Z,27.52
2019-03-21T16:09:32.757Z,25.20
2019-03-21T16:12:06.018Z,25.92
2019-03-21T16:14:39.348Z,26.33
2019-03-21T16:17:12.272Z,24.80
2019-03-21T16:19:45.301Z,24.97
2019-03-21T16:22:18.658Z,26.17
2019-03-21T16:24:51.838Z,25.40
2019-03-21T16:27:25.950Z,25.97
2019-03-21T16:30:17.608Z,27.40
2019-03-21T16:32:51.680Z,27.98
2019-03-21T16:35:25.183Z,27.93
2019-03-21T16:37:58.731Z,26.83
2019-03-21T16:40:32.266Z,25.80
2019-03-21T16:43:05.901Z,27.03
2019-03-21T16:45:39.386Z,27.27
2019-03-21T16:48:12.475Z,26.93
2019-03-21T16:50:45.746Z,28.07
2019-03-21T16:53:19.409Z,28.37
2019-03-21T16:55:52.887Z,28.32
2019-03-21T16:58:26.434Z,27.73
2019-03-21T17:01:00.047Z,28.83
2019-03-21T17:03:33.831Z,27.47
2019-03-21T17:06:08.347Z,27.97
2019-03-21T17:08:41.832Z,27.47
2019-03-21T17:11:15.799Z,28.40
2019-03-21T17:13:49.788Z,29.73
2019-03-21T17:16:24.227Z,28.73
2019-03-21T17:18:57.448Z,27.57
2019-03-21T17:21:30.612Z,29.03
2019-03-21T17:24:03.786Z,28.95
2019-03-21T17:26:37.401Z,27.57
2019-03-21T17:29:10.707Z,29.35
2019-03-21T17:31:44.529Z,27.60
2019-03-21T17:34:17.850Z,28.47
2019-03-21T17:36:54.579Z,27.80
2019-03-21T17:39:27.884Z,27.60
2019-03-21T17:42:01.446Z,26.97
2019-03-21T17:44:34.787Z,28.00
2019-03-21T17:47:08.622Z,27.33
2019-03-21T17:49:42.270Z,28.33
2019-03-21T17:52:15.585Z,26.50
2019-03-21T17:54:50.596Z,28.67
2019-03-21T17:57:33.922Z,29.20
2019-03-21T17:59:58.428Z,28.07
2019-03-21T18:02:31.901Z,28.30
2019-03-21T18:05:06.724Z,27.10
2019-03-21T18:07:40.832Z,28.50
2019-03-21T18:10:34.241Z,28.40
2019-03-21T18:13:08.399Z,27.93
2019-03-21T18:15:42.545Z,26.33
2019-03-21T18:18:17.141Z,27.53
2019-03-21T18:20:51.078Z,27.87
2019-03-21T18:23:26.606Z,27.73
2019-03-21T18:26:00.921Z,28.10
2019-03-21T18:28:36.217Z,27.22
2019-03-21T18:31:17.648Z,28.37
2019-03-21T18:33:51.479Z,29.80
2019-03-21T18:36:25.277Z,27.43
2019-03-21T18:38:59.916Z,27.98
2019-03-21T18:41:33.958Z,29.13
2019-03-21T18:44:07.862Z,28.30
2019-03-21T18:46:41.910Z,28.37
2019-03-21T18:49:15.707Z,27.77
2019-03-21T18:51:51.015Z,28.30
2019-03-21T18:54:24.644Z,28.93
2019-03-21T18:56:58.533Z,28.73
2019-03-21T18:59:32.574Z,28.30
2019-03-21T19:02:07.905Z,28.63
2019-03-21T19:04:42.775Z,29.37
2019-03-21T19:07:17.086Z,28.63
2019-03-21T19:09:50.931Z,28.53
2019-03-21T19:12:24.750Z,27.58
2019-03-21T19:14:58.547Z,30.93
2019-03-21T19:17:32.717Z,28.93
2019-03-21T19:20:09.388Z,29.17
2019-03-21T19:22:44.657Z,28.43
2019-03-21T19:25:19.757Z,28.67
2019-03-21T19:27:53.669Z,27.83
2019-03-21T19:30:28.907Z,30.63
2019-03-21T19:33:02.627Z,29.40
2019-03-21T19:35:37.048Z,28.33
2019-03-21T19:38:11.045Z,29.80
2019-03-21T19:40:45.038Z,29.77
2019-03-21T19:43:18.920Z,29.83
2019-03-21T19:45:52.906Z,29.97
2019-03-21T19:48:26.480Z,30.87
2019-03-21T19:51:00.911Z,30.27
2019-03-21T19:53:34.915Z,31.55
2019-03-21T19:56:08.996Z,29.30
2019-03-21T19:58:43.038Z,30.73
2019-03-21T20:01:17.154Z,29.63
2019-03-21T20:03:51.033Z,29.60
2019-03-21T20:06:31.217Z,29.20
2019-03-21T20:09:06.010Z,29.67
2019-03-21T20:11:40.024Z,30.32
2019-03-21T20:14:14.388Z,29.97
2019-03-21T20:16:48.707Z,29.93
2019-03-21T20:19:22.516Z,29.30
2019-03-21T20:21:56.420Z,30.43
2019-03-21T20:24:31.872Z,29.40
2019-03-21T20:27:05.774Z,29.30
2019-03-21T20:29:40.199Z,31.00
2019-03-21T20:32:20.381Z,30.47
2019-03-21T20:34:49.143Z,30.20
2019-03-21T20:37:22.960Z,31.07
2019-03-21T20:39:56.545Z,31.70
2019-03-21T20:42:30.862Z,30.60
2019-03-21T20:45:04.634Z,31.20
2019-03-21T20:47:42.628Z,32.60
2019-03-21T20:50:15.054Z,31.97
2019-03-21T20:52:48.913Z,30.77
2019-03-21T20:55:22.728Z,32.73
2019-03-21T20:57:56.996Z,30.97
2019-03-21T21:00:31.617Z,32.53
2019-03-21T21:03:05.347Z,32.80
2019-03-21T21:05:39.158Z,32.80
2019-03-21T21:08:13.344Z,31.62
2019-03-21T21:10:47.365Z,31.23
2019-03-21T21:13:21.241Z,32.47
2019-03-21T21:15:55.247Z,31.07
2019-03-21T21:18:29.125Z,31.37
2019-03-21T21:21:02.950Z,32.03
2019-03-21T21:23:38.773Z,31.97
2019-03-21T21:26:12.463Z,32.33
2019-03-21T21:28:46.138Z,31.43
2019-03-21T21:31:19.903Z,32.07
2019-03-21T21:33:54.232Z,31.47
2019-03-21T21:36:28.037Z,31.20
2019-03-21T21:39:02.504Z,32.08
2019-03-21T21:41:36.275Z,31.45
2019-03-21T21:44:10.049Z,32.08
2019-03-21T21:46:44.354Z,31.30
2019-03-21T21:49:18.496Z,31.37
2019-03-21T21:51:52.978Z,31.43
2019-03-21T21:54:27.108Z,31.35
2019-03-21T21:57:00.994Z,29.63
2019-03-21T21:59:34.898Z,30.23
2019-03-21T22:02:27.951Z,29.50
2019-03-21T22:05:01.775Z,30.87
2019-03-21T22:07:35.500Z,29.50
2019-03-21T22:10:10.728Z,29.87
2019-03-21T22:12:44.386Z,30.00
2019-03-21T22:15:19.409Z,31.30
2019-03-21T22:17:53.121Z,28.60
2019-03-21T22:20:26.875Z,28.83
2019-03-21T22:23:01.487Z,29.35
2019-03-21T22:25:35.676Z,29.30
2019-03-21T22:28:10.249Z,30.50
2019-03-21T22:30:44.360Z,31.00
2019-03-21T22:33:17.881Z,30.63
2019-03-21T22:35:51.741Z,30.70
2019-03-21T22:38:25.672Z,29.52
2019-03-21T22:41:00.414Z,29.07
2019-03-21T22:43:35.310Z,30.17
2019-03-21T22:46:09.050Z,29.07
2019-03-21T22:48:43.176Z,29.83
2019-03-21T22:51:16.767Z,29.93
2019-03-21T22:53:51.039Z,29.12
2019-03-21T22:56:24.727Z,29.10
2019-03-21T22:58:58.237Z,29.70
2019-03-21T23:01:31.746Z,29.57
2019-03-21T23:04:05.746Z,29.23
2019-03-21T23:06:39.779Z,29.87
2019-03-21T23:09:14.685Z,29.73
2019-03-21T23:11:49.648Z,29.80
2019-03-21T23:14:25.036Z,28.97
2019-03-21T23:17:00.432Z,29.10
2019-03-21T23:19:36.376Z,28.00
2019-03-21T23:22:10.034Z,27.67
2019-03-21T23:24:43.795Z,26.23
2019-03-21T23:27:17.338Z,26.30
2019-03-21T23:29:51.428Z,24.98
2019-03-21T23:32:25.095Z,24.25
2019-03-21T23:34:58.968Z,24.70
2019-03-21T23:37:32.461Z,23.43
2019-03-21T23:40:07.551Z,25.40
2019-03-21T23:42:42.867Z,23.67
2019-03-21T23:45:19.742Z,23.53
2019-03-21T23:47:52.135Z,22.37
2019-03-21T23:50:25.794Z,23.52
2019-03-21T23:53:00.081Z,22.57
2019-03-21T23:55:35.739Z,23.60
2019-03-21T23:58:10.329Z,22.47
